This is the latest recevied weather packets stored in our database for station/object W5LND-10. If no packets are shown the sender has not sent any weather packets the latest 1 day(s).
| Time | Temp. | Humidity | Pressure | Rain* | Wind** | Luminosity | Snow |
|---|---|---|---|---|---|---|---|
| 1778006170 | 31.11° C | 20% | 1002.8 hPa | 0 mm | 4.02 m/s, 299° | 1100 W/m² | - |
| 1778005870 | 31.11° C | 20% | 1002.8 hPa | 0 mm | 4.02 m/s, 334° | 1187 W/m² | - |
| 1778005570 | 31.11° C | 20% | 1002.7 hPa | 0 mm | 3.58 m/s, 286° | 1187 W/m² | - |
| 1778005270 | 31.11° C | 21% | 1002.6 hPa | 0 mm | 4.02 m/s, 322° | 1127 W/m² | - |
| 1778004970 | 31.11° C | 20% | 1002.7 hPa | 0 mm | 4.02 m/s, 273° | 1141 W/m² | - |
| 1778004670 | 31.11° C | 21% | 1002.7 hPa | 0 mm | 3.58 m/s, 267° | 1178 W/m² | - |
| 1778004370 | 31.11° C | 20% | 1002.8 hPa | 0 mm | 3.13 m/s, 306° | 1116 W/m² | - |
| 1778004070 | 31.11° C | 21% | 1002.6 hPa | 0 mm | 3.13 m/s, 321° | 1227 W/m² | - |
| 1778003770 | 31.11° C | 21% | 1003 hPa | 0 mm | 3.13 m/s, 317° | 947 W/m² | - |
| 1778003470 | 31.11° C | 20% | 1003.1 hPa | 0 mm | 2.68 m/s, 355° | 967 W/m² | - |
| 1778003170 | 31.67° C | 21% | 1002.8 hPa | 0 mm | 2.68 m/s, 293° | 976 W/m² | - |
| 1778002870 | 31.11° C | 23% | 1002.9 hPa | 0 mm | 2.68 m/s, 294° | 1155 W/m² | - |
| 1778002570 | 30.56° C | 23% | 1003 hPa | 0 mm | 2.24 m/s, 261° | 984 W/m² | - |
| 1778002270 | 30.56° C | 22% | 1003 hPa | 0 mm | 2.24 m/s, 345° | 984 W/m² | - |
| 1778001970 | 30.56° C | 23% | 1003.1 hPa | 0 mm | 2.24 m/s, 33° | 1076 W/m² | - |
| 1778001670 | 30° C | 24% | 1003.2 hPa | 0 mm | 2.24 m/s, 33° | 1148 W/m² | - |
| 1778001370 | 30° C | 23% | 1003.2 hPa | 0 mm | 2.24 m/s, 19° | 916 W/m² | - |
| 1778001070 | 30° C | 23% | 1003.2 hPa | 0 mm | 2.24 m/s, 24° | 812 W/m² | - |
| 1778000770 | 29.44° C | 24% | 1003.1 hPa | 0 mm | 2.24 m/s, 24° | 786 W/m² | - |
| 1778000470 | 29.44° C | 23% | 1003.2 hPa | 0 mm | 2.68 m/s, 11° | 838 W/m² | - |
| 1778000170 | 29.44° C | 24% | 1003.2 hPa | 0 mm | 2.24 m/s, 27° | 875 W/m² | - |
| 1777999870 | 28.89° C | 25% | 1003.1 hPa | 0 mm | 2.24 m/s, 314° | 701 W/m² | - |
| 1777999570 | 28.89° C | 25% | 1003.2 hPa | 0 mm | 2.68 m/s, 17° | 895 W/m² | - |
| 1777999270 | 28.33° C | 26% | 1003.2 hPa | 0 mm | 2.68 m/s, 329° | 589 W/m² | - |
| 1777998970 | 28.33° C | 25% | 1003.3 hPa | 0 mm | 2.68 m/s, 299° | 647 W/m² | - |
* Rain latest hour (hover to see other rain measurements)
** Current wind speed in m/s (hover to see current wind gust speed)